sensor_id;sensor_type;location;lat;lon;timestamp;P1;durP1;ratioP1;P2;durP2;ratioP2
5674;SDS011;2860;54.284;10.158;2023-12-20T00:00:57;13.05;;;2.33;;
5674;SDS011;2860;54.284;10.158;2023-12-20T00:03:22;7.30;;;1.90;;
5674;SDS011;2860;54.284;10.158;2023-12-20T00:05:49;15.27;;;1.95;;
5674;SDS011;2860;54.284;10.158;2023-12-20T00:08:15;29.15;;;1.88;;
5674;SDS011;2860;54.284;10.158;2023-12-20T00:10:40;22.63;;;2.38;;
5674;SDS011;2860;54.284;10.158;2023-12-20T00:13:06;26.42;;;2.58;;
5674;SDS011;2860;54.284;10.158;2023-12-20T00:15:32;13.38;;;2.03;;
5674;SDS011;2860;54.284;10.158;2023-12-20T00:17:58;17.88;;;2.20;;
5674;SDS011;2860;54.284;10.158;2023-12-20T00:20:24;18.27;;;2.47;;
5674;SDS011;2860;54.284;10.158;2023-12-20T00:22:50;31.65;;;2.80;;
5674;SDS011;2860;54.284;10.158;2023-12-20T00:25:15;6.47;;;1.75;;
5674;SDS011;2860;54.284;10.158;2023-12-20T00:27:41;21.80;;;2.65;;
5674;SDS011;2860;54.284;10.158;2023-12-20T00:30:07;15.68;;;2.30;;
5674;SDS011;2860;54.284;10.158;2023-12-20T00:32:34;9.77;;;1.92;;
5674;SDS011;2860;54.284;10.158;2023-12-20T00:35:00;7.80;;;2.30;;
5674;SDS011;2860;54.284;10.158;2023-12-20T00:37:26;18.60;;;2.65;;
5674;SDS011;2860;54.284;10.158;2023-12-20T00:39:51;13.02;;;2.97;;
5674;SDS011;2860;54.284;10.158;2023-12-20T00:42:17;17.33;;;2.90;;
5674;SDS011;2860;54.284;10.158;2023-12-20T00:44:42;20.38;;;2.95;;
5674;SDS011;2860;54.284;10.158;2023-12-20T00:47:08;16.40;;;2.22;;
5674;SDS011;2860;54.284;10.158;2023-12-20T00:49:33;21.20;;;2.25;;
5674;SDS011;2860;54.284;10.158;2023-12-20T00:51:59;16.38;;;1.65;;
5674;SDS011;2860;54.284;10.158;2023-12-20T00:54:25;29.27;;;2.55;;
5674;SDS011;2860;54.284;10.158;2023-12-20T00:56:50;16.90;;;1.90;;
5674;SDS011;2860;54.284;10.158;2023-12-20T00:59:16;34.78;;;2.72;;
5674;SDS011;2860;54.284;10.158;2023-12-20T01:01:42;43.20;;;2.55;;
5674;SDS011;2860;54.284;10.158;2023-12-20T01:04:08;27.13;;;3.22;;
5674;SDS011;2860;54.284;10.158;2023-12-20T01:06:33;18.35;;;2.65;;
5674;SDS011;2860;54.284;10.158;2023-12-20T01:08:59;23.00;;;2.42;;
5674;SDS011;2860;54.284;10.158;2023-12-20T01:11:24;20.33;;;2.75;;
5674;SDS011;2860;54.284;10.158;2023-12-20T01:13:50;23.83;;;2.55;;
5674;SDS011;2860;54.284;10.158;2023-12-20T01:16:15;21.55;;;2.72;;
5674;SDS011;2860;54.284;10.158;2023-12-20T01:18:41;19.65;;;2.00;;
5674;SDS011;2860;54.284;10.158;2023-12-20T01:21:06;16.83;;;2.60;;
5674;SDS011;2860;54.284;10.158;2023-12-20T01:23:32;27.85;;;2.35;;
5674;SDS011;2860;54.284;10.158;2023-12-20T01:25:58;15.90;;;2.78;;
5674;SDS011;2860;54.284;10.158;2023-12-20T01:28:24;13.75;;;1.77;;
5674;SDS011;2860;54.284;10.158;2023-12-20T01:30:50;21.77;;;3.13;;
5674;SDS011;2860;54.284;10.158;2023-12-20T01:33:16;28.52;;;4.22;;
5674;SDS011;2860;54.284;10.158;2023-12-20T01:35:41;15.10;;;2.25;;
5674;SDS011;2860;54.284;10.158;2023-12-20T01:38:07;15.52;;;3.17;;
5674;SDS011;2860;54.284;10.158;2023-12-20T01:40:32;19.98;;;2.35;;
5674;SDS011;2860;54.284;10.158;2023-12-20T01:43:01;13.88;;;3.00;;
5674;SDS011;2860;54.284;10.158;2023-12-20T01:45:30;13.98;;;2.25;;
5674;SDS011;2860;54.284;10.158;2023-12-20T01:47:56;21.08;;;2.20;;
5674;SDS011;2860;54.284;10.158;2023-12-20T01:50:23;21.38;;;3.28;;
5674;SDS011;2860;54.284;10.158;2023-12-20T01:52:49;15.07;;;2.55;;
5674;SDS011;2860;54.284;10.158;2023-12-20T01:55:17;17.63;;;2.85;;
5674;SDS011;2860;54.284;10.158;2023-12-20T01:57:44;22.25;;;3.05;;
5674;SDS011;2860;54.284;10.158;2023-12-20T02:00:12;12.93;;;2.25;;
5674;SDS011;2860;54.284;10.158;2023-12-20T02:02:39;29.38;;;3.35;;
5674;SDS011;2860;54.284;10.158;2023-12-20T02:05:09;15.57;;;2.83;;
5674;SDS011;2860;54.284;10.158;2023-12-20T02:07:35;25.48;;;2.50;;
5674;SDS011;2860;54.284;10.158;2023-12-20T02:10:01;13.48;;;2.20;;
5674;SDS011;2860;54.284;10.158;2023-12-20T02:12:27;17.70;;;2.13;;
5674;SDS011;2860;54.284;10.158;2023-12-20T02:14:53;14.90;;;2.03;;
5674;SDS011;2860;54.284;10.158;2023-12-20T02:17:19;17.33;;;2.42;;
5674;SDS011;2860;54.284;10.158;2023-12-20T02:19:45;14.73;;;2.35;;
5674;SDS011;2860;54.284;10.158;2023-12-20T02:22:10;18.33;;;2.45;;
5674;SDS011;2860;54.284;10.158;2023-12-20T02:24:36;21.33;;;2.80;;
5674;SDS011;2860;54.284;10.158;2023-12-20T02:27:02;13.50;;;1.83;;
5674;SDS011;2860;54.284;10.158;2023-12-20T02:29:30;13.40;;;2.10;;
5674;SDS011;2860;54.284;10.158;2023-12-20T02:31:56;20.77;;;2.35;;
5674;SDS011;2860;54.284;10.158;2023-12-20T02:34:21;20.88;;;2.03;;
5674;SDS011;2860;54.284;10.158;2023-12-20T02:36:47;11.90;;;2.05;;
5674;SDS011;2860;54.284;10.158;2023-12-20T02:39:12;18.65;;;3.60;;
5674;SDS011;2860;54.284;10.158;2023-12-20T02:41:38;12.93;;;2.33;;
5674;SDS011;2860;54.284;10.158;2023-12-20T02:44:03;5.18;;;1.27;;
5674;SDS011;2860;54.284;10.158;2023-12-20T02:46:29;19.05;;;2.58;;
5674;SDS011;2860;54.284;10.158;2023-12-20T02:48:54;15.52;;;2.63;;
5674;SDS011;2860;54.284;10.158;2023-12-20T02:51:20;11.32;;;2.67;;
5674;SDS011;2860;54.284;10.158;2023-12-20T02:53:45;9.18;;;2.58;;
5674;SDS011;2860;54.284;10.158;2023-12-20T02:56:11;9.10;;;2.80;;
5674;SDS011;2860;54.284;10.158;2023-12-20T02:58:36;17.88;;;2.50;;
5674;SDS011;2860;54.284;10.158;2023-12-20T03:01:02;21.05;;;3.22;;
5674;SDS011;2860;54.284;10.158;2023-12-20T03:03:28;17.20;;;2.78;;
5674;SDS011;2860;54.284;10.158;2023-12-20T03:05:53;15.75;;;3.38;;
5674;SDS011;2860;54.284;10.158;2023-12-20T03:08:19;6.85;;;2.60;;
5674;SDS011;2860;54.284;10.158;2023-12-20T03:10:44;16.25;;;2.88;;
5674;SDS011;2860;54.284;10.158;2023-12-20T03:13:10;23.88;;;2.75;;
5674;SDS011;2860;54.284;10.158;2023-12-20T03:15:35;13.30;;;2.28;;
5674;SDS011;2860;54.284;10.158;2023-12-20T03:18:02;14.23;;;2.83;;
5674;SDS011;2860;54.284;10.158;2023-12-20T03:20:27;16.60;;;2.40;;
5674;SDS011;2860;54.284;10.158;2023-12-20T03:22:53;15.73;;;2.55;;
5674;SDS011;2860;54.284;10.158;2023-12-20T03:25:18;15.20;;;3.40;;
5674;SDS011;2860;54.284;10.158;2023-12-20T03:27:44;21.00;;;4.07;;
5674;SDS011;2860;54.284;10.158;2023-12-20T03:30:09;20.90;;;4.15;;
5674;SDS011;2860;54.284;10.158;2023-12-20T03:32:36;10.32;;;4.20;;
5674;SDS011;2860;54.284;10.158;2023-12-20T03:35:02;20.02;;;3.53;;
5674;SDS011;2860;54.284;10.158;2023-12-20T03:37:28;18.55;;;3.47;;
5674;SDS011;2860;54.284;10.158;2023-12-20T03:39:53;17.92;;;3.53;;
5674;SDS011;2860;54.284;10.158;2023-12-20T03:42:19;15.80;;;3.10;;
5674;SDS011;2860;54.284;10.158;2023-12-20T03:44:44;13.48;;;3.00;;
5674;SDS011;2860;54.284;10.158;2023-12-20T03:47:10;22.83;;;3.28;;
5674;SDS011;2860;54.284;10.158;2023-12-20T03:49:35;14.90;;;1.98;;
5674;SDS011;2860;54.284;10.158;2023-12-20T03:52:02;17.15;;;3.08;;
5674;SDS011;2860;54.284;10.158;2023-12-20T03:54:28;13.07;;;2.65;;
5674;SDS011;2860;54.284;10.158;2023-12-20T03:56:53;11.02;;;1.98;;
5674;SDS011;2860;54.284;10.158;2023-12-20T03:59:19;10.82;;;1.80;;
5674;SDS011;2860;54.284;10.158;2023-12-20T04:01:44;11.55;;;2.03;;
5674;SDS011;2860;54.284;10.158;2023-12-20T04:04:10;11.85;;;2.45;;
5674;SDS011;2860;54.284;10.158;2023-12-20T04:06:36;8.50;;;1.88;;
5674;SDS011;2860;54.284;10.158;2023-12-20T04:09:02;7.65;;;1.55;;
5674;SDS011;2860;54.284;10.158;2023-12-20T04:11:28;4.78;;;2.03;;
5674;SDS011;2860;54.284;10.158;2023-12-20T04:13:53;3.05;;;1.75;;
5674;SDS011;2860;54.284;10.158;2023-12-20T04:16:19;5.70;;;1.60;;
5674;SDS011;2860;54.284;10.158;2023-12-20T04:18:44;12.10;;;2.13;;
5674;SDS011;2860;54.284;10.158;2023-12-20T04:21:10;12.07;;;2.38;;
5674;SDS011;2860;54.284;10.158;2023-12-20T04:23:35;11.95;;;2.35;;
5674;SDS011;2860;54.284;10.158;2023-12-20T04:26:01;12.00;;;2.47;;
5674;SDS011;2860;54.284;10.158;2023-12-20T04:28:26;9.02;;;1.92;;
5674;SDS011;2860;54.284;10.158;2023-12-20T04:30:55;12.18;;;2.05;;
5674;SDS011;2860;54.284;10.158;2023-12-20T04:33:21;6.40;;;1.20;;
5674;SDS011;2860;54.284;10.158;2023-12-20T04:35:46;11.18;;;1.90;;
5674;SDS011;2860;54.284;10.158;2023-12-20T04:38:12;8.45;;;1.67;;
5674;SDS011;2860;54.284;10.158;2023-12-20T04:40:37;3.25;;;1.30;;
5674;SDS011;2860;54.284;10.158;2023-12-20T04:43:05;15.27;;;2.60;;
5674;SDS011;2860;54.284;10.158;2023-12-20T04:45:30;12.10;;;1.77;;
5674;SDS011;2860;54.284;10.158;2023-12-20T04:47:56;7.15;;;1.58;;
5674;SDS011;2860;54.284;10.158;2023-12-20T04:50:21;4.50;;;1.30;;
5674;SDS011;2860;54.284;10.158;2023-12-20T04:52:47;11.40;;;1.95;;
5674;SDS011;2860;54.284;10.158;2023-12-20T04:55:12;7.15;;;2.28;;
5674;SDS011;2860;54.284;10.158;2023-12-20T04:57:39;8.32;;;1.80;;
5674;SDS011;2860;54.284;10.158;2023-12-20T05:00:04;12.85;;;3.80;;
5674;SDS011;2860;54.284;10.158;2023-12-20T05:02:30;13.20;;;2.65;;
5674;SDS011;2860;54.284;10.158;2023-12-20T05:04:56;6.38;;;2.25;;
5674;SDS011;2860;54.284;10.158;2023-12-20T05:07:21;7.93;;;2.50;;
5674;SDS011;2860;54.284;10.158;2023-12-20T05:09:47;18.90;;;2.53;;
5674;SDS011;2860;54.284;10.158;2023-12-20T05:12:13;30.00;;;4.07;;
5674;SDS011;2860;54.284;10.158;2023-12-20T05:14:39;20.15;;;2.75;;
5674;SDS011;2860;54.284;10.158;2023-12-20T05:17:04;17.38;;;2.40;;
5674;SDS011;2860;54.284;10.158;2023-12-20T05:19:29;13.40;;;2.38;;
5674;SDS011;2860;54.284;10.158;2023-12-20T05:21:55;32.08;;;3.45;;
5674;SDS011;2860;54.284;10.158;2023-12-20T05:24:21;23.42;;;2.25;;
5674;SDS011;2860;54.284;10.158;2023-12-20T05:26:46;20.65;;;2.92;;
5674;SDS011;2860;54.284;10.158;2023-12-20T05:29:12;17.23;;;2.58;;
5674;SDS011;2860;54.284;10.158;2023-12-20T05:31:37;18.05;;;3.58;;
5674;SDS011;2860;54.284;10.158;2023-12-20T05:34:03;14.57;;;2.70;;
5674;SDS011;2860;54.284;10.158;2023-12-20T05:36:28;10.43;;;1.80;;
5674;SDS011;2860;54.284;10.158;2023-12-20T05:38:54;13.02;;;2.20;;
5674;SDS011;2860;54.284;10.158;2023-12-20T05:41:19;20.42;;;3.63;;
5674;SDS011;2860;54.284;10.158;2023-12-20T05:43:46;17.25;;;2.67;;
5674;SDS011;2860;54.284;10.158;2023-12-20T05:46:12;15.20;;;2.47;;
5674;SDS011;2860;54.284;10.158;2023-12-20T05:48:37;16.55;;;2.30;;
5674;SDS011;2860;54.284;10.158;2023-12-20T05:51:03;20.05;;;3.03;;
5674;SDS011;2860;54.284;10.158;2023-12-20T05:53:28;18.25;;;2.55;;
5674;SDS011;2860;54.284;10.158;2023-12-20T05:55:54;17.67;;;2.90;;
5674;SDS011;2860;54.284;10.158;2023-12-20T05:58:19;13.30;;;2.65;;
5674;SDS011;2860;54.284;10.158;2023-12-20T06:00:45;13.85;;;4.82;;
5674;SDS011;2860;54.284;10.158;2023-12-20T06:03:10;16.58;;;4.13;;
5674;SDS011;2860;54.284;10.158;2023-12-20T06:05:36;23.95;;;3.03;;
5674;SDS011;2860;54.284;10.158;2023-12-20T06:08:01;15.77;;;2.55;;
5674;SDS011;2860;54.284;10.158;2023-12-20T06:10:28;14.65;;;2.80;;
5674;SDS011;2860;54.284;10.158;2023-12-20T06:12:54;22.98;;;2.75;;
5674;SDS011;2860;54.284;10.158;2023-12-20T06:15:20;21.63;;;4.20;;
5674;SDS011;2860;54.284;10.158;2023-12-20T06:17:45;27.92;;;2.80;;
5674;SDS011;2860;54.284;10.158;2023-12-20T06:20:11;17.10;;;3.50;;
5674;SDS011;2860;54.284;10.158;2023-12-20T06:22:37;20.05;;;2.35;;
5674;SDS011;2860;54.284;10.158;2023-12-20T06:25:04;25.60;;;3.15;;
5674;SDS011;2860;54.284;10.158;2023-12-20T06:27:29;41.22;;;3.55;;
5674;SDS011;2860;54.284;10.158;2023-12-20T06:29:57;21.67;;;3.55;;
5674;SDS011;2860;54.284;10.158;2023-12-20T06:32:23;18.92;;;3.53;;
5674;SDS011;2860;54.284;10.158;2023-12-20T06:34:49;30.65;;;3.22;;
5674;SDS011;2860;54.284;10.158;2023-12-20T06:37:14;26.52;;;3.72;;
5674;SDS011;2860;54.284;10.158;2023-12-20T06:39:40;22.25;;;4.13;;
5674;SDS011;2860;54.284;10.158;2023-12-20T06:42:05;23.92;;;3.63;;
5674;SDS011;2860;54.284;10.158;2023-12-20T06:44:31;29.80;;;2.83;;
5674;SDS011;2860;54.284;10.158;2023-12-20T06:46:57;31.00;;;3.90;;
5674;SDS011;2860;54.284;10.158;2023-12-20T06:49:23;29.70;;;3.97;;
5674;SDS011;2860;54.284;10.158;2023-12-20T06:51:48;25.55;;;4.32;;
5674;SDS011;2860;54.284;10.158;2023-12-20T06:54:14;16.50;;;3.05;;
5674;SDS011;2860;54.284;10.158;2023-12-20T06:56:39;31.38;;;4.00;;
5674;SDS011;2860;54.284;10.158;2023-12-20T06:59:06;21.30;;;2.97;;
5674;SDS011;2860;54.284;10.158;2023-12-20T07:01:31;18.50;;;3.33;;
5674;SDS011;2860;54.284;10.158;2023-12-20T07:03:57;23.85;;;2.85;;
5674;SDS011;2860;54.284;10.158;2023-12-20T07:06:22;12.23;;;3.08;;
5674;SDS011;2860;54.284;10.158;2023-12-20T07:08:48;21.98;;;3.42;;
5674;SDS011;2860;54.284;10.158;2023-12-20T07:11:14;29.83;;;3.05;;
5674;SDS011;2860;54.284;10.158;2023-12-20T07:13:39;38.95;;;3.33;;
5674;SDS011;2860;54.284;10.158;2023-12-20T07:16:05;21.17;;;3.35;;
5674;SDS011;2860;54.284;10.158;2023-12-20T07:18:31;32.75;;;4.55;;
5674;SDS011;2860;54.284;10.158;2023-12-20T07:20:56;23.67;;;3.70;;
5674;SDS011;2860;54.284;10.158;2023-12-20T07:23:22;34.90;;;4.00;;
5674;SDS011;2860;54.284;10.158;2023-12-20T07:25:47;29.30;;;4.10;;
5674;SDS011;2860;54.284;10.158;2023-12-20T07:28:13;20.73;;;3.25;;
5674;SDS011;2860;54.284;10.158;2023-12-20T07:30:38;40.40;;;4.38;;
5674;SDS011;2860;54.284;10.158;2023-12-20T07:33:04;33.10;;;3.10;;
5674;SDS011;2860;54.284;10.158;2023-12-20T07:35:30;26.98;;;3.47;;
5674;SDS011;2860;54.284;10.158;2023-12-20T07:37:55;13.15;;;3.30;;
5674;SDS011;2860;54.284;10.158;2023-12-20T07:40:21;26.42;;;3.55;;
5674;SDS011;2860;54.284;10.158;2023-12-20T07:42:48;23.27;;;3.53;;
5674;SDS011;2860;54.284;10.158;2023-12-20T07:45:14;22.95;;;4.47;;
5674;SDS011;2860;54.284;10.158;2023-12-20T07:47:40;17.58;;;3.67;;
5674;SDS011;2860;54.284;10.158;2023-12-20T07:50:06;22.30;;;3.55;;
5674;SDS011;2860;54.284;10.158;2023-12-20T07:52:31;25.45;;;2.40;;
5674;SDS011;2860;54.284;10.158;2023-12-20T07:54:57;26.15;;;3.40;;
5674;SDS011;2860;54.284;10.158;2023-12-20T07:57:23;19.27;;;2.53;;
5674;SDS011;2860;54.284;10.158;2023-12-20T07:59:48;16.48;;;2.47;;
5674;SDS011;2860;54.284;10.158;2023-12-20T08:02:14;17.90;;;2.78;;
5674;SDS011;2860;54.284;10.158;2023-12-20T08:04:40;19.48;;;4.03;;
5674;SDS011;2860;54.284;10.158;2023-12-20T08:07:06;21.33;;;2.55;;
5674;SDS011;2860;54.284;10.158;2023-12-20T08:09:31;15.35;;;2.38;;
5674;SDS011;2860;54.284;10.158;2023-12-20T08:11:58;21.60;;;3.70;;
5674;SDS011;2860;54.284;10.158;2023-12-20T08:14:25;18.38;;;2.13;;
5674;SDS011;2860;54.284;10.158;2023-12-20T08:16:56;16.30;;;2.38;;
5674;SDS011;2860;54.284;10.158;2023-12-20T08:19:22;9.38;;;2.47;;
5674;SDS011;2860;54.284;10.158;2023-12-20T08:21:47;11.00;;;2.75;;
5674;SDS011;2860;54.284;10.158;2023-12-20T08:24:13;7.63;;;2.13;;
5674;SDS011;2860;54.284;10.158;2023-12-20T08:26:38;16.98;;;2.40;;
5674;SDS011;2860;54.284;10.158;2023-12-20T08:29:04;14.23;;;2.63;;
5674;SDS011;2860;54.284;10.158;2023-12-20T08:31:29;10.25;;;2.03;;
5674;SDS011;2860;54.284;10.158;2023-12-20T08:33:55;10.65;;;2.63;;
5674;SDS011;2860;54.284;10.158;2023-12-20T08:36:21;12.80;;;2.50;;
5674;SDS011;2860;54.284;10.158;2023-12-20T08:38:48;22.13;;;2.72;;
5674;SDS011;2860;54.284;10.158;2023-12-20T08:41:13;14.98;;;2.75;;
5674;SDS011;2860;54.284;10.158;2023-12-20T08:43:39;10.70;;;1.63;;
5674;SDS011;2860;54.284;10.158;2023-12-20T08:46:07;11.88;;;1.42;;
5674;SDS011;2860;54.284;10.158;2023-12-20T08:48:34;8.88;;;1.70;;
5674;SDS011;2860;54.284;10.158;2023-12-20T08:51:00;7.50;;;1.75;;
5674;SDS011;2860;54.284;10.158;2023-12-20T08:53:25;13.25;;;1.42;;
5674;SDS011;2860;54.284;10.158;2023-12-20T08:55:51;10.70;;;2.58;;
5674;SDS011;2860;54.284;10.158;2023-12-20T08:58:17;2.53;;;1.25;;
5674;SDS011;2860;54.284;10.158;2023-12-20T09:00:43;1.02;;;0.90;;
5674;SDS011;2860;54.284;10.158;2023-12-20T09:03:08;8.68;;;1.13;;
5674;SDS011;2860;54.284;10.158;2023-12-20T09:05:34;2.50;;;0.80;;
5674;SDS011;2860;54.284;10.158;2023-12-20T09:07:59;1.35;;;1.02;;
5674;SDS011;2860;54.284;10.158;2023-12-20T09:10:25;2.13;;;1.10;;
5674;SDS011;2860;54.284;10.158;2023-12-20T09:12:51;7.30;;;1.10;;
5674;SDS011;2860;54.284;10.158;2023-12-20T09:15:21;2.60;;;0.80;;
5674;SDS011;2860;54.284;10.158;2023-12-20T09:17:47;3.67;;;1.00;;
5674;SDS011;2860;54.284;10.158;2023-12-20T09:20:13;3.40;;;1.15;;
5674;SDS011;2860;54.284;10.158;2023-12-20T09:22:39;2.00;;;0.95;;
5674;SDS011;2860;54.284;10.158;2023-12-20T09:25:05;3.25;;;0.95;;
5674;SDS011;2860;54.284;10.158;2023-12-20T09:27:30;0.68;;;0.68;;
5674;SDS011;2860;54.284;10.158;2023-12-20T09:29:56;5.78;;;1.25;;
5674;SDS011;2860;54.284;10.158;2023-12-20T09:32:21;5.05;;;0.90;;
5674;SDS011;2860;54.284;10.158;2023-12-20T09:34:47;2.13;;;1.02;;
5674;SDS011;2860;54.284;10.158;2023-12-20T09:37:13;1.70;;;1.08;;
5674;SDS011;2860;54.284;10.158;2023-12-20T09:39:38;3.08;;;1.05;;
5674;SDS011;2860;54.284;10.158;2023-12-20T09:42:04;12.57;;;1.30;;
5674;SDS011;2860;54.284;10.158;2023-12-20T09:44:31;1.08;;;0.98;;
5674;SDS011;2860;54.284;10.158;2023-12-20T09:47:01;10.73;;;1.25;;
5674;SDS011;2860;54.284;10.158;2023-12-20T09:49:28;6.70;;;1.55;;
5674;SDS011;2860;54.284;10.158;2023-12-20T09:51:55;11.10;;;1.50;;
5674;SDS011;2860;54.284;10.158;2023-12-20T09:54:28;9.30;;;2.25;;
5674;SDS011;2860;54.284;10.158;2023-12-20T09:56:54;7.15;;;1.55;;
5674;SDS011;2860;54.284;10.158;2023-12-20T09:59:19;6.15;;;1.40;;
5674;SDS011;2860;54.284;10.158;2023-12-20T10:01:45;4.00;;;1.50;;
5674;SDS011;2860;54.284;10.158;2023-12-20T10:04:11;8.85;;;2.22;;
5674;SDS011;2860;54.284;10.158;2023-12-20T10:06:41;11.35;;;1.88;;
5674;SDS011;2860;54.284;10.158;2023-12-20T10:09:08;7.20;;;1.48;;
5674;SDS011;2860;54.284;10.158;2023-12-20T10:11:35;9.93;;;1.83;;
5674;SDS011;2860;54.284;10.158;2023-12-20T10:14:02;6.22;;;1.40;;
5674;SDS011;2860;54.284;10.158;2023-12-20T10:16:29;6.00;;;2.03;;
5674;SDS011;2860;54.284;10.158;2023-12-20T10:18:55;10.35;;;1.80;;
5674;SDS011;2860;54.284;10.158;2023-12-20T10:21:24;6.68;;;1.63;;
5674;SDS011;2860;54.284;10.158;2023-12-20T10:23:54;10.63;;;2.05;;
5674;SDS011;2860;54.284;10.158;2023-12-20T10:26:21;9.75;;;1.88;;
5674;SDS011;2860;54.284;10.158;2023-12-20T10:28:50;14.20;;;2.30;;
5674;SDS011;2860;54.284;10.158;2023-12-20T10:31:30;8.68;;;1.85;;
5674;SDS011;2860;54.284;10.158;2023-12-20T10:33:59;12.73;;;1.42;;
5674;SDS011;2860;54.284;10.158;2023-12-20T10:36:25;10.88;;;1.17;;
5674;SDS011;2860;54.284;10.158;2023-12-20T10:38:53;22.77;;;2.60;;
5674;SDS011;2860;54.284;10.158;2023-12-20T10:41:23;5.65;;;1.05;;
5674;SDS011;2860;54.284;10.158;2023-12-20T10:44:00;5.47;;;1.50;;
5674;SDS011;2860;54.284;10.158;2023-12-20T10:46:27;5.45;;;1.27;;
5674;SDS011;2860;54.284;10.158;2023-12-20T10:48:55;3.95;;;1.33;;
5674;SDS011;2860;54.284;10.158;2023-12-20T10:51:22;7.55;;;1.60;;
5674;SDS011;2860;54.284;10.158;2023-12-20T10:53:49;10.10;;;1.55;;
5674;SDS011;2860;54.284;10.158;2023-12-20T10:56:16;12.27;;;1.70;;
5674;SDS011;2860;54.284;10.158;2023-12-20T10:58:43;11.30;;;2.13;;
5674;SDS011;2860;54.284;10.158;2023-12-20T11:01:09;7.10;;;1.80;;
5674;SDS011;2860;54.284;10.158;2023-12-20T11:03:37;8.82;;;3.00;;
5674;SDS011;2860;54.284;10.158;2023-12-20T11:06:26;4.25;;;1.00;;
5674;SDS011;2860;54.284;10.158;2023-12-20T11:12:01;3.40;;;1.63;;
5674;SDS011;2860;54.284;10.158;2023-12-20T11:14:46;3.17;;;0.90;;
5674;SDS011;2860;54.284;10.158;2023-12-20T11:17:16;3.58;;;1.00;;
5674;SDS011;2860;54.284;10.158;2023-12-20T11:20:03;5.95;;;1.23;;
5674;SDS011;2860;54.284;10.158;2023-12-20T11:22:30;2.72;;;1.38;;
5674;SDS011;2860;54.284;10.158;2023-12-20T11:25:03;13.45;;;1.73;;
5674;SDS011;2860;54.284;10.158;2023-12-20T11:27:30;6.72;;;1.55;;
5674;SDS011;2860;54.284;10.158;2023-12-20T11:29:57;4.10;;;1.25;;
5674;SDS011;2860;54.284;10.158;2023-12-20T11:34:56;8.27;;;1.48;;
5674;SDS011;2860;54.284;10.158;2023-12-20T11:37:28;7.53;;;1.40;;
5674;SDS011;2860;54.284;10.158;2023-12-20T11:39:55;5.85;;;1.35;;
5674;SDS011;2860;54.284;10.158;2023-12-20T11:42:25;7.68;;;1.40;;
5674;SDS011;2860;54.284;10.158;2023-12-20T11:44:50;5.82;;;1.85;;
5674;SDS011;2860;54.284;10.158;2023-12-20T11:47:16;11.20;;;1.77;;
5674;SDS011;2860;54.284;10.158;2023-12-20T11:49:44;6.13;;;2.10;;
5674;SDS011;2860;54.284;10.158;2023-12-20T11:52:12;7.85;;;1.45;;
5674;SDS011;2860;54.284;10.158;2023-12-20T11:54:38;10.32;;;2.08;;
5674;SDS011;2860;54.284;10.158;2023-12-20T11:57:03;14.25;;;1.90;;
5674;SDS011;2860;54.284;10.158;2023-12-20T11:59:30;4.63;;;1.60;;
5674;SDS011;2860;54.284;10.158;2023-12-20T12:01:56;17.42;;;2.97;;
5674;SDS011;2860;54.284;10.158;2023-12-20T12:04:25;5.95;;;2.13;;
5674;SDS011;2860;54.284;10.158;2023-12-20T12:06:51;5.97;;;1.88;;
5674;SDS011;2860;54.284;10.158;2023-12-20T12:09:17;7.68;;;2.65;;
5674;SDS011;2860;54.284;10.158;2023-12-20T12:11:43;14.35;;;2.38;;
5674;SDS011;2860;54.284;10.158;2023-12-20T12:14:09;6.47;;;1.88;;
5674;SDS011;2860;54.284;10.158;2023-12-20T12:16:34;11.38;;;2.63;;
5674;SDS011;2860;54.284;10.158;2023-12-20T12:19:00;9.40;;;2.50;;
5674;SDS011;2860;54.284;10.158;2023-12-20T12:21:25;11.13;;;2.30;;
5674;SDS011;2860;54.284;10.158;2023-12-20T12:23:51;8.10;;;2.03;;
5674;SDS011;2860;54.284;10.158;2023-12-20T12:26:18;19.40;;;2.55;;
5674;SDS011;2860;54.284;10.158;2023-12-20T12:28:43;12.48;;;3.78;;
5674;SDS011;2860;54.284;10.158;2023-12-20T12:31:13;20.20;;;3.17;;
5674;SDS011;2860;54.284;10.158;2023-12-20T12:33:42;13.82;;;3.53;;
5674;SDS011;2860;54.284;10.158;2023-12-20T12:36:09;17.38;;;2.42;;
5674;SDS011;2860;54.284;10.158;2023-12-20T12:38:36;10.77;;;2.42;;
5674;SDS011;2860;54.284;10.158;2023-12-20T12:41:01;3.13;;;1.48;;
5674;SDS011;2860;54.284;10.158;2023-12-20T12:43:27;13.32;;;2.58;;
5674;SDS011;2860;54.284;10.158;2023-12-20T12:45:53;9.80;;;2.53;;
5674;SDS011;2860;54.284;10.158;2023-12-20T12:48:18;5.82;;;2.72;;
5674;SDS011;2860;54.284;10.158;2023-12-20T12:50:45;8.73;;;2.97;;
5674;SDS011;2860;54.284;10.158;2023-12-20T12:53:11;11.70;;;2.63;;
5674;SDS011;2860;54.284;10.158;2023-12-20T12:55:36;11.98;;;2.78;;
5674;SDS011;2860;54.284;10.158;2023-12-20T12:58:02;17.90;;;3.47;;
5674;SDS011;2860;54.284;10.158;2023-12-20T13:00:27;11.63;;;3.42;;
5674;SDS011;2860;54.284;10.158;2023-12-20T13:02:53;9.70;;;2.72;;
5674;SDS011;2860;54.284;10.158;2023-12-20T13:05:19;11.57;;;2.75;;
5674;SDS011;2860;54.284;10.158;2023-12-20T13:07:47;10.68;;;3.38;;
5674;SDS011;2860;54.284;10.158;2023-12-20T13:10:13;18.02;;;3.47;;
5674;SDS011;2860;54.284;10.158;2023-12-20T13:12:41;12.05;;;2.38;;
5674;SDS011;2860;54.284;10.158;2023-12-20T13:15:07;14.13;;;2.88;;
5674;SDS011;2860;54.284;10.158;2023-12-20T13:17:33;22.33;;;4.70;;
5674;SDS011;2860;54.284;10.158;2023-12-20T13:19:59;20.35;;;3.60;;
5674;SDS011;2860;54.284;10.158;2023-12-20T13:22:25;20.08;;;4.03;;
5674;SDS011;2860;54.284;10.158;2023-12-20T13:24:50;16.77;;;4.05;;
5674;SDS011;2860;54.284;10.158;2023-12-20T13:27:16;12.88;;;3.47;;
5674;SDS011;2860;54.284;10.158;2023-12-20T13:29:41;9.98;;;3.70;;
5674;SDS011;2860;54.284;10.158;2023-12-20T13:32:07;9.60;;;3.40;;
5674;SDS011;2860;54.284;10.158;2023-12-20T13:34:32;17.98;;;3.33;;
5674;SDS011;2860;54.284;10.158;2023-12-20T13:36:58;8.60;;;3.88;;
5674;SDS011;2860;54.284;10.158;2023-12-20T13:39:23;19.73;;;5.15;;
5674;SDS011;2860;54.284;10.158;2023-12-20T13:41:49;19.58;;;5.35;;
5674;SDS011;2860;54.284;10.158;2023-12-20T13:44:14;15.25;;;5.07;;
5674;SDS011;2860;54.284;10.158;2023-12-20T13:46:40;20.55;;;4.38;;
5674;SDS011;2860;54.284;10.158;2023-12-20T13:49:06;15.70;;;4.75;;
5674;SDS011;2860;54.284;10.158;2023-12-20T13:51:32;19.48;;;4.18;;
5674;SDS011;2860;54.284;10.158;2023-12-20T13:53:57;14.65;;;4.68;;
5674;SDS011;2860;54.284;10.158;2023-12-20T13:56:24;9.05;;;3.72;;
5674;SDS011;2860;54.284;10.158;2023-12-20T13:58:49;15.75;;;4.65;;
5674;SDS011;2860;54.284;10.158;2023-12-20T14:01:15;16.30;;;4.70;;
5674;SDS011;2860;54.284;10.158;2023-12-20T14:03:41;16.83;;;4.25;;
5674;SDS011;2860;54.284;10.158;2023-12-20T14:06:07;11.90;;;4.68;;
5674;SDS011;2860;54.284;10.158;2023-12-20T14:08:32;19.02;;;5.20;;
5674;SDS011;2860;54.284;10.158;2023-12-20T14:10:58;19.13;;;5.05;;
5674;SDS011;2860;54.284;10.158;2023-12-20T14:13:23;14.10;;;4.78;;
5674;SDS011;2860;54.284;10.158;2023-12-20T14:15:49;18.02;;;6.45;;
5674;SDS011;2860;54.284;10.158;2023-12-20T14:18:14;14.15;;;4.57;;
5674;SDS011;2860;54.284;10.158;2023-12-20T14:20:40;15.13;;;5.53;;
5674;SDS011;2860;54.284;10.158;2023-12-20T14:23:07;14.88;;;5.38;;
5674;SDS011;2860;54.284;10.158;2023-12-20T14:25:34;20.17;;;5.88;;
5674;SDS011;2860;54.284;10.158;2023-12-20T14:28:02;22.35;;;5.53;;
5674;SDS011;2860;54.284;10.158;2023-12-20T14:30:30;23.23;;;5.45;;
5674;SDS011;2860;54.284;10.158;2023-12-20T14:32:57;8.30;;;4.75;;
5674;SDS011;2860;54.284;10.158;2023-12-20T14:35:22;13.38;;;4.50;;
5674;SDS011;2860;54.284;10.158;2023-12-20T14:37:48;11.48;;;4.78;;
5674;SDS011;2860;54.284;10.158;2023-12-20T14:40:15;15.05;;;5.97;;
5674;SDS011;2860;54.284;10.158;2023-12-20T14:42:41;8.52;;;5.88;;
5674;SDS011;2860;54.284;10.158;2023-12-20T14:45:07;13.70;;;5.80;;
5674;SDS011;2860;54.284;10.158;2023-12-20T14:47:33;20.80;;;6.00;;
5674;SDS011;2860;54.284;10.158;2023-12-20T14:50:00;14.75;;;5.32;;